sensor_id;sensor_type;location;lat;lon;timestamp;P1;durP1;ratioP1;P2;durP2;ratioP2
4957;SDS011;2494;51.872;9.688;2023-03-01T00:00:03;11.40;;;9.10;;
4957;SDS011;2494;51.872;9.688;2023-03-01T00:02:48;11.43;;;8.03;;
4957;SDS011;2494;51.872;9.688;2023-03-01T00:05:34;11.00;;;7.03;;
4957;SDS011;2494;51.872;9.688;2023-03-01T00:08:20;6.13;;;4.93;;
4957;SDS011;2494;51.872;9.688;2023-03-01T00:11:06;9.27;;;6.07;;
4957;SDS011;2494;51.872;9.688;2023-03-01T00:13:53;10.03;;;6.90;;
4957;SDS011;2494;51.872;9.688;2023-03-01T00:16:38;9.40;;;6.07;;
4957;SDS011;2494;51.872;9.688;2023-03-01T00:19:24;8.70;;;5.37;;
4957;SDS011;2494;51.872;9.688;2023-03-01T00:22:09;8.47;;;5.80;;
4957;SDS011;2494;51.872;9.688;2023-03-01T00:24:55;7.33;;;6.00;;
4957;SDS011;2494;51.872;9.688;2023-03-01T00:27:41;10.63;;;6.10;;
4957;SDS011;2494;51.872;9.688;2023-03-01T00:30:26;9.43;;;6.20;;
4957;SDS011;2494;51.872;9.688;2023-03-01T00:33:11;8.00;;;6.30;;
4957;SDS011;2494;51.872;9.688;2023-03-01T00:35:57;11.03;;;6.90;;
4957;SDS011;2494;51.872;9.688;2023-03-01T00:38:44;6.13;;;5.37;;
4957;SDS011;2494;51.872;9.688;2023-03-01T00:41:31;8.53;;;5.60;;
4957;SDS011;2494;51.872;9.688;2023-03-01T00:44:18;6.27;;;4.53;;
4957;SDS011;2494;51.872;9.688;2023-03-01T00:47:03;6.23;;;5.50;;
4957;SDS011;2494;51.872;9.688;2023-03-01T00:49:49;12.30;;;6.80;;
4957;SDS011;2494;51.872;9.688;2023-03-01T00:52:33;6.43;;;5.20;;
4957;SDS011;2494;51.872;9.688;2023-03-01T00:55:18;13.20;;;6.13;;
4957;SDS011;2494;51.872;9.688;2023-03-01T00:58:05;9.23;;;6.70;;
4957;SDS011;2494;51.872;9.688;2023-03-01T01:00:50;12.30;;;6.07;;
4957;SDS011;2494;51.872;9.688;2023-03-01T01:03:36;6.93;;;5.30;;
4957;SDS011;2494;51.872;9.688;2023-03-01T01:06:21;6.63;;;5.07;;
4957;SDS011;2494;51.872;9.688;2023-03-01T01:09:07;6.63;;;6.00;;
4957;SDS011;2494;51.872;9.688;2023-03-01T01:11:52;5.83;;;4.50;;
4957;SDS011;2494;51.872;9.688;2023-03-01T01:14:39;4.97;;;4.60;;
4957;SDS011;2494;51.872;9.688;2023-03-01T01:17:24;5.47;;;4.03;;
4957;SDS011;2494;51.872;9.688;2023-03-01T01:20:10;5.67;;;5.17;;
4957;SDS011;2494;51.872;9.688;2023-03-01T01:22:55;11.00;;;5.23;;
4957;SDS011;2494;51.872;9.688;2023-03-01T01:25:40;8.13;;;5.87;;
4957;SDS011;2494;51.872;9.688;2023-03-01T01:28:25;8.40;;;5.70;;
4957;SDS011;2494;51.872;9.688;2023-03-01T01:31:12;7.80;;;5.70;;
4957;SDS011;2494;51.872;9.688;2023-03-01T01:33:58;9.40;;;6.13;;
4957;SDS011;2494;51.872;9.688;2023-03-01T01:36:43;6.27;;;5.60;;
4957;SDS011;2494;51.872;9.688;2023-03-01T01:39:29;10.90;;;6.60;;
4957;SDS011;2494;51.872;9.688;2023-03-01T01:42:14;9.47;;;6.17;;
4957;SDS011;2494;51.872;9.688;2023-03-01T01:45:24;7.90;;;5.30;;
4957;SDS011;2494;51.872;9.688;2023-03-01T01:48:13;5.57;;;4.60;;
4957;SDS011;2494;51.872;9.688;2023-03-01T01:50:59;8.37;;;5.50;;
4957;SDS011;2494;51.872;9.688;2023-03-01T01:53:45;9.37;;;5.23;;
4957;SDS011;2494;51.872;9.688;2023-03-01T01:56:31;8.00;;;4.80;;
4957;SDS011;2494;51.872;9.688;2023-03-01T01:59:16;6.23;;;5.60;;
4957;SDS011;2494;51.872;9.688;2023-03-01T02:02:02;9.60;;;4.90;;
4957;SDS011;2494;51.872;9.688;2023-03-01T02:04:49;6.43;;;5.40;;
4957;SDS011;2494;51.872;9.688;2023-03-01T02:07:37;8.37;;;5.23;;
4957;SDS011;2494;51.872;9.688;2023-03-01T02:10:23;7.00;;;5.10;;
4957;SDS011;2494;51.872;9.688;2023-03-01T02:13:09;7.50;;;6.20;;
4957;SDS011;2494;51.872;9.688;2023-03-01T02:15:55;7.33;;;5.93;;
4957;SDS011;2494;51.872;9.688;2023-03-01T02:18:40;10.10;;;5.10;;
4957;SDS011;2494;51.872;9.688;2023-03-01T02:24:28;9.40;;;6.47;;
4957;SDS011;2494;51.872;9.688;2023-03-01T02:27:17;7.73;;;5.87;;
4957;SDS011;2494;51.872;9.688;2023-03-01T02:30:10;9.23;;;6.17;;
4957;SDS011;2494;51.872;9.688;2023-03-01T02:32:57;5.33;;;4.80;;
4957;SDS011;2494;51.872;9.688;2023-03-01T02:35:47;7.67;;;6.23;;
4957;SDS011;2494;51.872;9.688;2023-03-01T02:38:33;7.03;;;6.00;;
4957;SDS011;2494;51.872;9.688;2023-03-01T02:41:19;11.83;;;6.93;;
4957;SDS011;2494;51.872;9.688;2023-03-01T02:44:04;8.97;;;6.97;;
4957;SDS011;2494;51.872;9.688;2023-03-01T02:46:52;7.10;;;5.90;;
4957;SDS011;2494;51.872;9.688;2023-03-01T02:49:38;9.70;;;5.90;;
4957;SDS011;2494;51.872;9.688;2023-03-01T02:52:34;4.73;;;4.10;;
4957;SDS011;2494;51.872;9.688;2023-03-01T02:55:25;7.50;;;5.37;;
4957;SDS011;2494;51.872;9.688;2023-03-01T02:58:11;5.87;;;4.90;;
4957;SDS011;2494;51.872;9.688;2023-03-01T03:00:55;6.80;;;5.80;;
4957;SDS011;2494;51.872;9.688;2023-03-01T03:03:42;5.57;;;3.90;;
4957;SDS011;2494;51.872;9.688;2023-03-01T03:06:27;7.00;;;4.50;;
4957;SDS011;2494;51.872;9.688;2023-03-01T03:09:12;5.70;;;4.70;;
4957;SDS011;2494;51.872;9.688;2023-03-01T03:11:58;9.57;;;5.40;;
4957;SDS011;2494;51.872;9.688;2023-03-01T03:14:43;9.50;;;5.73;;
4957;SDS011;2494;51.872;9.688;2023-03-01T03:17:28;8.37;;;5.30;;
4957;SDS011;2494;51.872;9.688;2023-03-01T03:20:14;10.37;;;6.30;;
4957;SDS011;2494;51.872;9.688;2023-03-01T03:23:02;9.90;;;5.50;;
4957;SDS011;2494;51.872;9.688;2023-03-01T03:25:49;7.37;;;5.90;;
4957;SDS011;2494;51.872;9.688;2023-03-01T03:28:34;7.80;;;5.30;;
4957;SDS011;2494;51.872;9.688;2023-03-01T03:31:23;6.07;;;4.60;;
4957;SDS011;2494;51.872;9.688;2023-03-01T03:34:08;8.47;;;5.53;;
4957;SDS011;2494;51.872;9.688;2023-03-01T03:37:02;7.43;;;4.30;;
4957;SDS011;2494;51.872;9.688;2023-03-01T03:40:08;6.00;;;4.50;;
4957;SDS011;2494;51.872;9.688;2023-03-01T03:42:58;7.17;;;4.73;;
4957;SDS011;2494;51.872;9.688;2023-03-01T03:45:44;5.93;;;4.47;;
4957;SDS011;2494;51.872;9.688;2023-03-01T03:48:29;10.57;;;5.37;;
4957;SDS011;2494;51.872;9.688;2023-03-01T03:51:15;8.20;;;5.10;;
4957;SDS011;2494;51.872;9.688;2023-03-01T03:54:02;8.50;;;5.50;;
4957;SDS011;2494;51.872;9.688;2023-03-01T03:56:47;11.47;;;6.60;;
4957;SDS011;2494;51.872;9.688;2023-03-01T03:59:32;8.40;;;5.67;;
4957;SDS011;2494;51.872;9.688;2023-03-01T04:02:17;7.30;;;5.57;;
4957;SDS011;2494;51.872;9.688;2023-03-01T04:05:09;11.37;;;5.10;;
4957;SDS011;2494;51.872;9.688;2023-03-01T04:07:54;8.07;;;5.67;;
4957;SDS011;2494;51.872;9.688;2023-03-01T04:10:48;8.00;;;6.13;;
4957;SDS011;2494;51.872;9.688;2023-03-01T04:13:33;6.67;;;5.07;;
4957;SDS011;2494;51.872;9.688;2023-03-01T04:16:18;9.67;;;6.03;;
4957;SDS011;2494;51.872;9.688;2023-03-01T04:19:03;7.70;;;5.33;;
4957;SDS011;2494;51.872;9.688;2023-03-01T04:21:49;8.50;;;5.27;;
4957;SDS011;2494;51.872;9.688;2023-03-01T04:24:35;8.80;;;5.00;;
4957;SDS011;2494;51.872;9.688;2023-03-01T04:27:22;9.67;;;5.40;;
4957;SDS011;2494;51.872;9.688;2023-03-01T04:30:08;7.27;;;5.00;;
4957;SDS011;2494;51.872;9.688;2023-03-01T04:32:54;8.50;;;5.97;;
4957;SDS011;2494;51.872;9.688;2023-03-01T04:35:40;6.97;;;6.10;;
4957;SDS011;2494;51.872;9.688;2023-03-01T04:38:25;10.23;;;6.73;;
4957;SDS011;2494;51.872;9.688;2023-03-01T04:41:10;7.40;;;5.20;;
4957;SDS011;2494;51.872;9.688;2023-03-01T04:43:56;10.53;;;6.60;;
4957;SDS011;2494;51.872;9.688;2023-03-01T04:46:43;8.30;;;5.33;;
4957;SDS011;2494;51.872;9.688;2023-03-01T04:49:29;11.53;;;6.93;;
4957;SDS011;2494;51.872;9.688;2023-03-01T04:52:14;7.70;;;5.30;;
4957;SDS011;2494;51.872;9.688;2023-03-01T04:54:59;9.27;;;5.80;;
4957;SDS011;2494;51.872;9.688;2023-03-01T04:57:44;9.70;;;6.00;;
4957;SDS011;2494;51.872;9.688;2023-03-01T05:00:31;9.00;;;5.30;;
4957;SDS011;2494;51.872;9.688;2023-03-01T05:03:16;11.20;;;6.30;;
4957;SDS011;2494;51.872;9.688;2023-03-01T05:06:02;7.20;;;5.30;;
4957;SDS011;2494;51.872;9.688;2023-03-01T05:08:47;11.60;;;6.23;;
4957;SDS011;2494;51.872;9.688;2023-03-01T05:11:32;9.90;;;5.90;;
4957;SDS011;2494;51.872;9.688;2023-03-01T05:14:19;8.07;;;6.07;;
4957;SDS011;2494;51.872;9.688;2023-03-01T05:17:06;8.23;;;5.93;;
4957;SDS011;2494;51.872;9.688;2023-03-01T05:19:51;10.27;;;5.63;;
4957;SDS011;2494;51.872;9.688;2023-03-01T05:22:38;9.03;;;7.30;;
4957;SDS011;2494;51.872;9.688;2023-03-01T05:25:23;14.67;;;7.70;;
4957;SDS011;2494;51.872;9.688;2023-03-01T05:28:09;10.53;;;7.03;;
4957;SDS011;2494;51.872;9.688;2023-03-01T05:30:56;38.17;;;18.00;;
4957;SDS011;2494;51.872;9.688;2023-03-01T05:33:43;31.30;;;16.13;;
4957;SDS011;2494;51.872;9.688;2023-03-01T05:36:29;39.33;;;18.07;;
4957;SDS011;2494;51.872;9.688;2023-03-01T05:39:14;33.63;;;17.60;;
4957;SDS011;2494;51.872;9.688;2023-03-01T05:41:59;32.50;;;17.43;;
4957;SDS011;2494;51.872;9.688;2023-03-01T05:44:46;22.93;;;14.90;;
4957;SDS011;2494;51.872;9.688;2023-03-01T05:47:31;22.60;;;12.03;;
4957;SDS011;2494;51.872;9.688;2023-03-01T05:50:19;17.47;;;12.20;;
4957;SDS011;2494;51.872;9.688;2023-03-01T05:53:05;13.13;;;8.70;;
4957;SDS011;2494;51.872;9.688;2023-03-01T05:55:51;12.20;;;7.40;;
4957;SDS011;2494;51.872;9.688;2023-03-01T05:58:36;14.77;;;6.50;;
4957;SDS011;2494;51.872;9.688;2023-03-01T06:01:22;12.87;;;7.20;;
4957;SDS011;2494;51.872;9.688;2023-03-01T06:04:07;11.47;;;8.50;;
4957;SDS011;2494;51.872;9.688;2023-03-01T06:06:54;9.57;;;6.70;;
4957;SDS011;2494;51.872;9.688;2023-03-01T06:09:39;12.40;;;6.33;;
4957;SDS011;2494;51.872;9.688;2023-03-01T06:12:24;9.97;;;6.47;;
4957;SDS011;2494;51.872;9.688;2023-03-01T06:15:10;15.97;;;8.80;;
4957;SDS011;2494;51.872;9.688;2023-03-01T06:17:56;12.93;;;9.10;;
4957;SDS011;2494;51.872;9.688;2023-03-01T06:20:41;11.73;;;7.40;;
4957;SDS011;2494;51.872;9.688;2023-03-01T06:23:28;14.07;;;8.20;;
4957;SDS011;2494;51.872;9.688;2023-03-01T06:26:13;11.80;;;8.53;;
4957;SDS011;2494;51.872;9.688;2023-03-01T06:28:58;19.93;;;8.17;;
4957;SDS011;2494;51.872;9.688;2023-03-01T06:31:43;15.37;;;7.83;;
4957;SDS011;2494;51.872;9.688;2023-03-01T06:34:29;16.90;;;11.23;;
4957;SDS011;2494;51.872;9.688;2023-03-01T06:37:15;17.97;;;10.97;;
4957;SDS011;2494;51.872;9.688;2023-03-01T06:40:02;25.90;;;11.73;;
4957;SDS011;2494;51.872;9.688;2023-03-01T06:42:51;16.37;;;8.50;;
4957;SDS011;2494;51.872;9.688;2023-03-01T06:45:43;19.10;;;8.10;;
4957;SDS011;2494;51.872;9.688;2023-03-01T06:48:27;17.13;;;9.70;;
4957;SDS011;2494;51.872;9.688;2023-03-01T06:51:13;23.57;;;11.30;;
4957;SDS011;2494;51.872;9.688;2023-03-01T06:53:58;24.70;;;14.47;;
4957;SDS011;2494;51.872;9.688;2023-03-01T06:56:44;21.17;;;10.80;;
4957;SDS011;2494;51.872;9.688;2023-03-01T06:59:31;21.13;;;13.00;;
4957;SDS011;2494;51.872;9.688;2023-03-01T07:02:16;45.00;;;21.80;;
4957;SDS011;2494;51.872;9.688;2023-03-01T07:05:01;25.03;;;12.40;;
4957;SDS011;2494;51.872;9.688;2023-03-01T07:07:47;25.60;;;15.57;;
4957;SDS011;2494;51.872;9.688;2023-03-01T07:10:32;22.60;;;15.10;;
4957;SDS011;2494;51.872;9.688;2023-03-01T07:13:18;24.17;;;11.97;;
4957;SDS011;2494;51.872;9.688;2023-03-01T07:16:04;12.20;;;9.93;;
4957;SDS011;2494;51.872;9.688;2023-03-01T07:18:49;10.03;;;8.20;;
4957;SDS011;2494;51.872;9.688;2023-03-01T07:21:37;14.83;;;12.10;;
4957;SDS011;2494;51.872;9.688;2023-03-01T07:24:22;11.10;;;9.97;;
4957;SDS011;2494;51.872;9.688;2023-03-01T07:27:07;12.47;;;10.00;;
4957;SDS011;2494;51.872;9.688;2023-03-01T07:29:54;10.47;;;9.53;;
4957;SDS011;2494;51.872;9.688;2023-03-01T07:32:39;21.40;;;16.83;;
4957;SDS011;2494;51.872;9.688;2023-03-01T07:35:25;22.73;;;18.27;;
4957;SDS011;2494;51.872;9.688;2023-03-01T07:38:10;11.70;;;10.40;;
4957;SDS011;2494;51.872;9.688;2023-03-01T07:40:57;12.60;;;11.00;;
4957;SDS011;2494;51.872;9.688;2023-03-01T07:43:43;16.00;;;12.97;;
4957;SDS011;2494;51.872;9.688;2023-03-01T07:46:29;11.97;;;10.77;;
4957;SDS011;2494;51.872;9.688;2023-03-01T07:49:15;11.37;;;10.30;;
4957;SDS011;2494;51.872;9.688;2023-03-01T07:52:00;12.87;;;11.63;;
4957;SDS011;2494;51.872;9.688;2023-03-01T07:54:45;14.47;;;13.00;;
4957;SDS011;2494;51.872;9.688;2023-03-01T07:57:30;14.43;;;13.03;;
4957;SDS011;2494;51.872;9.688;2023-03-01T08:00:15;11.97;;;10.80;;
4957;SDS011;2494;51.872;9.688;2023-03-01T08:03:02;7.80;;;7.10;;
4957;SDS011;2494;51.872;9.688;2023-03-01T08:05:49;9.27;;;8.57;;
4957;SDS011;2494;51.872;9.688;2023-03-01T08:08:38;9.20;;;8.40;;
4957;SDS011;2494;51.872;9.688;2023-03-01T08:11:23;9.97;;;9.10;;
4957;SDS011;2494;51.872;9.688;2023-03-01T08:14:08;8.10;;;7.50;;
4957;SDS011;2494;51.872;9.688;2023-03-01T08:16:54;8.73;;;8.13;;
4957;SDS011;2494;51.872;9.688;2023-03-01T08:19:42;7.80;;;7.20;;
4957;SDS011;2494;51.872;9.688;2023-03-01T08:22:31;9.43;;;8.73;;
4957;SDS011;2494;51.872;9.688;2023-03-01T08:25:17;7.80;;;7.30;;
4957;SDS011;2494;51.872;9.688;2023-03-01T08:28:02;7.83;;;7.30;;
4957;SDS011;2494;51.872;9.688;2023-03-01T08:30:50;8.30;;;7.73;;
4957;SDS011;2494;51.872;9.688;2023-03-01T08:33:35;9.27;;;6.90;;
4957;SDS011;2494;51.872;9.688;2023-03-01T08:36:22;10.10;;;6.83;;
4957;SDS011;2494;51.872;9.688;2023-03-01T08:39:08;5.63;;;5.23;;
4957;SDS011;2494;51.872;9.688;2023-03-01T08:41:53;5.70;;;5.30;;
4957;SDS011;2494;51.872;9.688;2023-03-01T08:44:40;4.97;;;4.50;;
4957;SDS011;2494;51.872;9.688;2023-03-01T08:47:25;6.27;;;5.87;;
4957;SDS011;2494;51.872;9.688;2023-03-01T08:50:10;10.97;;;8.97;;
4957;SDS011;2494;51.872;9.688;2023-03-01T08:52:59;15.03;;;11.37;;
4957;SDS011;2494;51.872;9.688;2023-03-01T08:55:44;10.80;;;9.70;;
4957;SDS011;2494;51.872;9.688;2023-03-01T08:58:29;11.00;;;10.00;;
4957;SDS011;2494;51.872;9.688;2023-03-01T09:01:15;8.43;;;7.77;;
4957;SDS011;2494;51.872;9.688;2023-03-01T09:04:01;6.70;;;5.77;;
4957;SDS011;2494;51.872;9.688;2023-03-01T09:06:46;6.57;;;5.87;;
4957;SDS011;2494;51.872;9.688;2023-03-01T09:09:35;7.50;;;6.50;;
4957;SDS011;2494;51.872;9.688;2023-03-01T09:12:20;6.73;;;5.93;;
4957;SDS011;2494;51.872;9.688;2023-03-01T09:15:06;5.70;;;5.20;;
4957;SDS011;2494;51.872;9.688;2023-03-01T09:17:51;5.70;;;5.30;;
4957;SDS011;2494;51.872;9.688;2023-03-01T09:20:36;5.20;;;4.67;;
4957;SDS011;2494;51.872;9.688;2023-03-01T09:23:21;5.50;;;4.60;;
4957;SDS011;2494;51.872;9.688;2023-03-01T09:26:09;5.63;;;4.97;;
4957;SDS011;2494;51.872;9.688;2023-03-01T09:28:54;4.53;;;4.10;;
4957;SDS011;2494;51.872;9.688;2023-03-01T09:31:42;4.80;;;4.40;;
4957;SDS011;2494;51.872;9.688;2023-03-01T09:34:27;9.00;;;4.90;;
4957;SDS011;2494;51.872;9.688;2023-03-01T09:37:13;4.90;;;4.37;;
4957;SDS011;2494;51.872;9.688;2023-03-01T09:39:59;6.73;;;4.07;;
4957;SDS011;2494;51.872;9.688;2023-03-01T09:42:51;7.03;;;5.47;;
4957;SDS011;2494;51.872;9.688;2023-03-01T09:45:38;8.73;;;5.00;;
4957;SDS011;2494;51.872;9.688;2023-03-01T09:48:25;7.07;;;4.10;;
4957;SDS011;2494;51.872;9.688;2023-03-01T09:51:12;6.97;;;4.30;;
4957;SDS011;2494;51.872;9.688;2023-03-01T09:54:10;4.90;;;4.40;;
4957;SDS011;2494;51.872;9.688;2023-03-01T09:57:05;7.00;;;4.57;;
4957;SDS011;2494;51.872;9.688;2023-03-01T10:02:54;4.50;;;3.60;;
4957;SDS011;2494;51.872;9.688;2023-03-01T10:05:59;4.50;;;3.87;;
4957;SDS011;2494;51.872;9.688;2023-03-01T10:08:47;4.53;;;4.10;;
4957;SDS011;2494;51.872;9.688;2023-03-01T10:11:35;5.40;;;4.43;;
4957;SDS011;2494;51.872;9.688;2023-03-01T10:14:25;4.33;;;4.00;;
4957;SDS011;2494;51.872;9.688;2023-03-01T10:17:16;5.30;;;4.10;;
4957;SDS011;2494;51.872;9.688;2023-03-01T10:20:17;5.67;;;4.30;;
4957;SDS011;2494;51.872;9.688;2023-03-01T10:23:03;4.33;;;3.93;;
4957;SDS011;2494;51.872;9.688;2023-03-01T10:25:52;4.47;;;4.07;;
4957;SDS011;2494;51.872;9.688;2023-03-01T10:28:42;3.87;;;3.57;;
4957;SDS011;2494;51.872;9.688;2023-03-01T10:31:35;4.93;;;4.50;;
4957;SDS011;2494;51.872;9.688;2023-03-01T10:34:25;4.70;;;4.30;;
4957;SDS011;2494;51.872;9.688;2023-03-01T10:37:14;7.43;;;5.10;;
4957;SDS011;2494;51.872;9.688;2023-03-01T10:40:02;5.30;;;4.80;;
4957;SDS011;2494;51.872;9.688;2023-03-01T10:42:52;4.77;;;4.37;;
4957;SDS011;2494;51.872;9.688;2023-03-01T10:45:39;8.20;;;4.57;;
4957;SDS011;2494;51.872;9.688;2023-03-01T10:48:25;5.30;;;4.47;;
4957;SDS011;2494;51.872;9.688;2023-03-01T10:51:14;5.27;;;4.77;;
4957;SDS011;2494;51.872;9.688;2023-03-01T10:54:05;4.47;;;4.07;;
4957;SDS011;2494;51.872;9.688;2023-03-01T10:56:51;5.40;;;4.90;;
4957;SDS011;2494;51.872;9.688;2023-03-01T10:59:37;6.87;;;4.80;;
4957;SDS011;2494;51.872;9.688;2023-03-01T11:02:23;5.37;;;4.73;;
4957;SDS011;2494;51.872;9.688;2023-03-01T11:05:16;6.67;;;4.90;;
4957;SDS011;2494;51.872;9.688;2023-03-01T11:08:02;4.60;;;4.00;;
4957;SDS011;2494;51.872;9.688;2023-03-01T11:10:49;7.87;;;4.50;;
4957;SDS011;2494;51.872;9.688;2023-03-01T11:13:34;4.80;;;4.40;;
4957;SDS011;2494;51.872;9.688;2023-03-01T11:16:24;6.47;;;5.13;;
4957;SDS011;2494;51.872;9.688;2023-03-01T11:19:14;6.00;;;5.13;;
4957;SDS011;2494;51.872;9.688;2023-03-01T11:22:02;6.17;;;5.57;;
4957;SDS011;2494;51.872;9.688;2023-03-01T11:24:48;5.67;;;5.10;;
4957;SDS011;2494;51.872;9.688;2023-03-01T11:27:36;5.30;;;4.80;;
4957;SDS011;2494;51.872;9.688;2023-03-01T11:30:23;4.97;;;4.53;;
4957;SDS011;2494;51.872;9.688;2023-03-01T11:33:11;6.13;;;5.23;;
4957;SDS011;2494;51.872;9.688;2023-03-01T11:36:00;5.50;;;5.00;;
4957;SDS011;2494;51.872;9.688;2023-03-01T11:38:47;10.60;;;5.47;;
4957;SDS011;2494;51.872;9.688;2023-03-01T11:41:33;7.53;;;5.00;;
4957;SDS011;2494;51.872;9.688;2023-03-01T11:44:23;6.20;;;5.20;;
4957;SDS011;2494;51.872;9.688;2023-03-01T11:47:18;4.90;;;4.40;;
4957;SDS011;2494;51.872;9.688;2023-03-01T11:50:14;6.07;;;4.90;;
4957;SDS011;2494;51.872;9.688;2023-03-01T11:53:04;9.40;;;4.80;;
4957;SDS011;2494;51.872;9.688;2023-03-01T11:55:58;10.83;;;5.30;;
4957;SDS011;2494;51.872;9.688;2023-03-01T11:58:52;5.93;;;4.77;;
4957;SDS011;2494;51.872;9.688;2023-03-01T12:01:55;6.00;;;4.17;;
4957;SDS011;2494;51.872;9.688;2023-03-01T12:04:51;7.17;;;4.60;;
4957;SDS011;2494;51.872;9.688;2023-03-01T12:07:41;11.17;;;5.50;;
4957;SDS011;2494;51.872;9.688;2023-03-01T12:10:29;5.40;;;4.90;;
4957;SDS011;2494;51.872;9.688;2023-03-01T12:13:23;5.80;;;5.23;;
4957;SDS011;2494;51.872;9.688;2023-03-01T12:16:23;5.50;;;5.00;;
4957;SDS011;2494;51.872;9.688;2023-03-01T12:22:24;7.20;;;5.23;;
4957;SDS011;2494;51.872;9.688;2023-03-01T12:25:19;5.63;;;4.97;;
4957;SDS011;2494;51.872;9.688;2023-03-01T12:28:16;7.30;;;6.13;;
4957;SDS011;2494;51.872;9.688;2023-03-01T12:31:18;8.17;;;7.13;;
4957;SDS011;2494;51.872;9.688;2023-03-01T12:34:15;8.33;;;5.03;;
4957;SDS011;2494;51.872;9.688;2023-03-01T12:37:11;6.53;;;5.07;;
4957;SDS011;2494;51.872;9.688;2023-03-01T12:40:09;4.57;;;4.27;;
4957;SDS011;2494;51.872;9.688;2023-03-01T12:43:04;6.10;;;5.40;;
4957;SDS011;2494;51.872;9.688;2023-03-01T12:45:57;4.77;;;4.33;;
4957;SDS011;2494;51.872;9.688;2023-03-01T12:48:47;6.00;;;5.20;;
4957;SDS011;2494;51.872;9.688;2023-03-01T12:51:35;6.10;;;5.60;;
4957;SDS011;2494;51.872;9.688;2023-03-01T12:54:22;5.77;;;5.10;;
4957;SDS011;2494;51.872;9.688;2023-03-01T12:57:14;6.93;;;5.37;;
4957;SDS011;2494;51.872;9.688;2023-03-01T13:00:02;8.13;;;5.53;;
4957;SDS011;2494;51.872;9.688;2023-03-01T13:02:54;5.90;;;5.37;;
4957;SDS011;2494;51.872;9.688;2023-03-01T13:05:56;6.93;;;5.80;;
4957;SDS011;2494;51.872;9.688;2023-03-01T13:08:48;8.13;;;5.90;;
4957;SDS011;2494;51.872;9.688;2023-03-01T13:11:34;5.87;;;5.20;;
4957;SDS011;2494;51.872;9.688;2023-03-01T13:14:37;5.20;;;4.57;;
4957;SDS011;2494;51.872;9.688;2023-03-01T13:17:30;5.87;;;5.37;;
4957;SDS011;2494;51.872;9.688;2023-03-01T13:20:16;5.90;;;4.80;;
4957;SDS011;2494;51.872;9.688;2023-03-01T13:23:11;6.23;;;5.17;;
4957;SDS011;2494;51.872;9.688;2023-03-01T13:26:09;6.50;;;5.13;;
4957;SDS011;2494;51.872;9.688;2023-03-01T13:28:56;9.77;;;4.50;;
4957;SDS011;2494;51.872;9.688;2023-03-01T13:34:47;4.70;;;4.30;;
4957;SDS011;2494;51.872;9.688;2023-03-01T13:37:36;5.23;;;4.73;;
4957;SDS011;2494;51.872;9.688;2023-03-01T13:43:29;5.87;;;4.93;;
4957;SDS011;2494;51.872;9.688;2023-03-01T13:46:16;4.47;;;3.83;;
4957;SDS011;2494;51.872;9.688;2023-03-01T13:49:02;5.37;;;4.87;;
4957;SDS011;2494;51.872;9.688;2023-03-01T13:51:49;5.50;;;3.67;;
4957;SDS011;2494;51.872;9.688;2023-03-01T13:54:34;5.60;;;4.10;;
4957;SDS011;2494;51.872;9.688;2023-03-01T13:57:20;3.90;;;3.53;;
4957;SDS011;2494;51.872;9.688;2023-03-01T14:00:23;4.53;;;4.23;;
4957;SDS011;2494;51.872;9.688;2023-03-01T14:03:10;3.73;;;3.40;;
4957;SDS011;2494;51.872;9.688;2023-03-01T14:06:03;5.77;;;4.30;;
4957;SDS011;2494;51.872;9.688;2023-03-01T14:09:00;4.07;;;3.43;;
4957;SDS011;2494;51.872;9.688;2023-03-01T14:14:52;4.07;;;3.70;;
4957;SDS011;2494;51.872;9.688;2023-03-01T14:17:43;4.23;;;3.77;;
4957;SDS011;2494;51.872;9.688;2023-03-01T14:20:30;5.13;;;4.03;;
4957;SDS011;2494;51.872;9.688;2023-03-01T14:23:19;4.00;;;3.60;;
4957;SDS011;2494;51.872;9.688;2023-03-01T14:26:09;4.07;;;3.77;;
4957;SDS011;2494;51.872;9.688;2023-03-01T14:28:55;8.73;;;4.27;;
4957;SDS011;2494;51.872;9.688;2023-03-01T14:31:41;9.40;;;3.93;;
4957;SDS011;2494;51.872;9.688;2023-03-01T14:34:27;4.63;;;4.23;;
4957;SDS011;2494;51.872;9.688;2023-03-01T14:37:17;4.80;;;4.40;;
4957;SDS011;2494;51.872;9.688;2023-03-01T14:40:04;4.37;;;3.97;;
4957;SDS011;2494;51.872;9.688;2023-03-01T14:42:51;4.60;;;4.20;;
4957;SDS011;2494;51.872;9.688;2023-03-01T14:45:37;7.40;;;4.63;;
4957;SDS011;2494;51.872;9.688;2023-03-01T14:48:22;5.47;;;3.30;;
4957;SDS011;2494;51.872;9.688;2023-03-01T14:51:07;5.20;;;4.60;;
4957;SDS011;2494;51.872;9.688;2023-03-01T14:53:53;4.80;;;3.83;;
4957;SDS011;2494;51.872;9.688;2023-03-01T14:56:43;6.70;;;4.77;;
4957;SDS011;2494;51.872;9.688;2023-03-01T14:59:30;5.50;;;3.93;;
4957;SDS011;2494;51.872;9.688;2023-03-01T15:02:18;3.97;;;3.60;;
4957;SDS011;2494;51.872;9.688;2023-03-01T15:05:04;4.23;;;3.83;;
4957;SDS011;2494;51.872;9.688;2023-03-01T15:07:50;4.40;;;3.40;;
4957;SDS011;2494;51.872;9.688;2023-03-01T15:10:36;5.47;;;4.30;;
4957;SDS011;2494;51.872;9.688;2023-03-01T15:13:23;4.57;;;4.13;;
4957;SDS011;2494;51.872;9.688;2023-03-01T15:16:11;6.40;;;5.40;;
4957;SDS011;2494;51.872;9.688;2023-03-01T15:18:57;5.37;;;3.27;;
4957;SDS011;2494;51.872;9.688;2023-03-01T15:21:44;10.60;;;4.50;;
4957;SDS011;2494;51.872;9.688;2023-03-01T15:24:32;3.83;;;3.40;;
4957;SDS011;2494;51.872;9.688;2023-03-01T15:27:20;5.57;;;3.77;;
4957;SDS011;2494;51.872;9.688;2023-03-01T15:30:06;3.30;;;3.10;;
4957;SDS011;2494;51.872;9.688;2023-03-01T15:33:32;4.33;;;3.93;;
4957;SDS011;2494;51.872;9.688;2023-03-01T15:36:32;3.83;;;3.43;;
4957;SDS011;2494;51.872;9.688;2023-03-01T15:42:36;4.77;;;4.23;;
4957;SDS011;2494;51.872;9.688;2023-03-01T15:45:22;4.80;;;4.40;;
4957;SDS011;2494;51.872;9.688;2023-03-01T15:48:14;4.93;;;3.50;;
4957;SDS011;2494;51.872;9.688;2023-03-01T15:51:01;3.80;;;3.43;;
4957;SDS011;2494;51.872;9.688;2023-03-01T15:53:48;3.87;;;3.50;;
4957;SDS011;2494;51.872;9.688;2023-03-01T15:56:34;3.80;;;3.50;;
4957;SDS011;2494;51.872;9.688;2023-03-01T15:59:19;6.93;;;3.80;;
4957;SDS011;2494;51.872;9.688;2023-03-01T16:02:08;4.50;;;3.70;;
4957;SDS011;2494;51.872;9.688;2023-03-01T16:04:53;4.17;;;3.33;;
4957;SDS011;2494;51.872;9.688;2023-03-01T16:07:41;7.73;;;4.27;;
4957;SDS011;2494;51.872;9.688;2023-03-01T16:10:26;3.30;;;3.00;;
4957;SDS011;2494;51.872;9.688;2023-03-01T16:13:12;6.20;;;3.17;;
4957;SDS011;2494;51.872;9.688;2023-03-01T16:15:57;4.90;;;3.17;;
4957;SDS011;2494;51.872;9.688;2023-03-01T16:18:46;4.83;;;3.77;;
4957;SDS011;2494;51.872;9.688;2023-03-01T16:21:33;3.60;;;3.03;;
4957;SDS011;2494;51.872;9.688;2023-03-01T16:24:20;3.40;;;3.03;;
4957;SDS011;2494;51.872;9.688;2023-03-01T16:27:05;3.13;;;2.90;;
4957;SDS011;2494;51.872;9.688;2023-03-01T16:29:50;3.77;;;3.10;;
4957;SDS011;2494;51.872;9.688;2023-03-01T16:32:37;4.60;;;3.87;;
4957;SDS011;2494;51.872;9.688;2023-03-01T16:35:24;5.30;;;4.00;;
4957;SDS011;2494;51.872;9.688;2023-03-01T16:38:09;5.13;;;4.07;;
4957;SDS011;2494;51.872;9.688;2023-03-01T16:40:56;4.10;;;3.57;;
4957;SDS011;2494;51.872;9.688;2023-03-01T16:43:41;5.67;;;4.10;;
4957;SDS011;2494;51.872;9.688;2023-03-01T16:46:27;4.50;;;4.10;;
4957;SDS011;2494;51.872;9.688;2023-03-01T16:49:12;3.90;;;3.43;;
4957;SDS011;2494;51.872;9.688;2023-03-01T16:51:58;4.00;;;3.50;;
4957;SDS011;2494;51.872;9.688;2023-03-01T16:54:43;3.07;;;2.87;;
4957;SDS011;2494;51.872;9.688;2023-03-01T16:57:33;4.00;;;3.60;;
4957;SDS011;2494;51.872;9.688;2023-03-01T17:00:19;4.17;;;3.77;;
4957;SDS011;2494;51.872;9.688;2023-03-01T17:03:04;7.50;;;4.33;;
4957;SDS011;2494;51.872;9.688;2023-03-01T17:05:51;3.60;;;3.20;;
4957;SDS011;2494;51.872;9.688;2023-03-01T17:08:37;4.40;;;3.70;;
4957;SDS011;2494;51.872;9.688;2023-03-01T17:11:22;4.03;;;3.70;;
4957;SDS011;2494;51.872;9.688;2023-03-01T17:14:09;4.40;;;4.00;;
4957;SDS011;2494;51.872;9.688;2023-03-01T17:16:54;11.43;;;4.20;;
4957;SDS011;2494;51.872;9.688;2023-03-01T17:19:47;4.43;;;4.03;;
4957;SDS011;2494;51.872;9.688;2023-03-01T17:22:32;4.03;;;3.53;;
4957;SDS011;2494;51.872;9.688;2023-03-01T17:25:17;7.20;;;4.00;;
4957;SDS011;2494;51.872;9.688;2023-03-01T17:28:03;4.80;;;4.10;;
4957;SDS011;2494;51.872;9.688;2023-03-01T17:30:50;4.37;;;3.90;;
4957;SDS011;2494;51.872;9.688;2023-03-01T17:33:35;4.70;;;4.23;;
4957;SDS011;2494;51.872;9.688;2023-03-01T17:36:21;4.47;;;4.07;;